Time;durP1;ratioP1;P1;durP2;ratioP2;P2;SDS_P1;SDS_P2;PMS_P1;PMS_P2;Temp;Humidity;BMP_temperature;BMP_pressure;BME280_temperature;BME280_humidity;BME280_pressure;Samples;Min_cycle;Max_cycle;Signal;HPM_P1;HPM_P2
2023/04/29 00:02:10;;;;;;;;;;;;;;;20.17;44.94;100451.34;5010279;28;4144;-67
2023/04/29 00:04:37;;;;;;;;;;;;;;;20.17;45.01;100444.88;5009368;28;4013;-68
2023/04/29 00:07:03;;;;;;;;;;;;;;;20.17;45.01;100445.59;5002759;28;4500;-68
2023/04/29 00:09:30;;;;;;;;;;;;;;;20.17;45.04;100451.34;5009338;28;4287;-67
2023/04/29 00:11:56;;;;;;;;;;;;;;;20.16;45.10;100449.13;5011150;28;4051;-68
2023/04/29 00:14:23;;;;;;;;;;;;;;;20.16;45.06;100443.38;5007720;28;4029;-67
2023/04/29 00:16:50;;;;;;;;;;;;;;;20.17;45.02;100450.63;5009953;28;4447;-67
2023/04/29 00:19:17;;;;;;;;;;;;;;;20.16;45.08;100449.13;5011260;28;4027;-67
2023/04/29 00:21:44;;;;;;;;;;;;;;;20.16;44.93;100443.38;5008652;28;4099;-68
2023/04/29 00:24:10;;;;;;;;;;;;;;;20.16;45.01;100443.38;5011674;28;4149;-67
2023/04/29 00:26:37;;;;;;;;;;;;;;;20.15;45.13;100447.66;5009481;28;4203;-68
2023/04/29 00:29:03;;;;;;;;;;;;;;;20.15;45.09;100453.41;5015512;28;4069;-68
2023/04/29 00:31:31;;;;;;;;;;;;;;;20.14;45.03;100449.78;5011724;28;4310;-68
2023/04/29 00:33:58;;;;;;;;;;;;;;;20.15;44.78;100453.41;5010851;28;4187;-68
2023/04/29 00:36:25;;;;;;;;;;;;;;;20.14;45.01;100452.66;5013097;28;4334;-68
2023/04/29 00:38:51;;;;;;;;;;;;;;;20.14;45.16;100463.44;5008388;28;5059;-68
2023/04/29 00:41:18;;;;;;;;;;;;;;;20.14;44.97;100458.41;5011564;28;4214;-68
2023/04/29 00:43:45;;;;;;;;;;;;;;;20.13;44.99;100433.19;5028095;28;4185;-67
2023/04/29 00:46:11;;;;;;;;;;;;;;;20.12;45.09;100431.72;5011390;28;4158;-67
2023/04/29 00:48:38;;;;;;;;;;;;;;;20.12;45.07;100429.59;5007840;28;4308;-68
2023/04/29 00:51:04;;;;;;;;;;;;;;;20.14;45.09;100423.19;5012146;28;4387;-68
2023/04/29 00:53:31;;;;;;;;;;;;;;;20.13;45.00;100421.69;4994732;28;4337;-68
2023/04/29 00:55:59;;;;;;;;;;;;;;;20.12;45.07;100426.72;5012310;28;5360;-68
2023/04/29 00:58:32;;;;;;;;;;;;;;;20.12;44.98;100429.59;4998053;28;4455;-68
2023/04/29 01:00:58;;;;;;;;;;;;;;;20.11;45.08;100436.72;5014601;28;4067;-68
2023/04/29 01:03:25;;;;;;;;;;;;;;;20.12;45.19;100448.97;5017648;28;4457;-68
2023/04/29 01:06:06;;;;;;;;;;;;;;;20.12;45.06;100443.22;4997516;28;4162;-68
2023/04/29 01:08:36;;;;;;;;;;;;;;;20.11;45.07;100448.22;5010378;28;4254;-68
2023/04/29 01:11:06;;;;;;;;;;;;;;;20.11;45.12;100442.47;4999735;28;4398;-68
2023/04/29 01:13:43;;;;;;;;;;;;;;;20.12;45.09;100431.72;5018396;28;4657;-68
2023/04/29 01:16:17;;;;;;;;;;;;;;;20.09;45.24;100446.00;5046020;28;4038;-68
2023/04/29 01:18:45;;;;;;;;;;;;;;;20.09;45.17;100434.50;5002516;28;4046;-68
2023/04/29 01:21:15;;;;;;;;;;;;;;;20.09;45.17;100431.63;5042595;28;4866;-68
2023/04/29 01:23:41;;;;;;;;;;;;;;;20.09;45.23;100425.16;5012571;28;4340;-68
2023/04/29 01:26:08;;;;;;;;;;;;;;;20.10;45.06;100429.50;5012430;28;4236;-66
2023/04/29 01:29:00;;;;;;;;;;;;;;;20.11;45.08;100427.34;5002911;28;4140;-69
2023/04/29 01:31:28;;;;;;;;;;;;;;;20.10;45.21;100432.38;4991104;28;4125;-68
2023/04/29 01:34:06;;;;;;;;;;;;;;;20.11;45.26;100430.22;5009146;28;4348;-68
2023/04/29 01:36:35;;;;;;;;;;;;;;;20.10;45.19;100432.38;4997698;28;5166;-68
2023/04/29 01:39:05;;;;;;;;;;;;;;;20.12;45.10;100437.47;5009555;28;4105;-68
2023/04/29 01:41:35;;;;;;;;;;;;;;;20.11;45.22;100435.97;5008224;28;3970;-68
2023/04/29 01:44:15;;;;;;;;;;;;;;;20.10;45.17;100423.75;5018041;28;4201;-68
2023/04/29 01:46:42;;;;;;;;;;;;;;;20.09;45.10;100423.00;5009009;28;5047;-68
2023/04/29 01:49:08;;;;;;;;;;;;;;;20.09;45.13;100425.16;4996677;28;4106;-68
2023/04/29 01:51:36;;;;;;;;;;;;;;;20.11;45.28;100421.59;5018626;28;4274;-69
2023/04/29 01:54:04;;;;;;;;;;;;;;;20.11;45.10;100424.47;5030558;28;4193;-68
2023/04/29 01:56:30;;;;;;;;;;;;;;;20.08;45.16;100421.53;5009793;28;4039;-68
2023/04/29 01:59:04;;;;;;;;;;;;;;;20.08;45.18;100421.53;5008335;28;4635;-68
2023/04/29 02:01:37;;;;;;;;;;;;;;;20.06;45.11;100415.69;5014394;28;4958;-68
2023/04/29 02:04:03;;;;;;;;;;;;;;;20.08;45.17;100420.78;5009746;28;4194;-68
2023/04/29 02:06:31;;;;;;;;;;;;;;;20.07;45.25;100420.06;5015841;28;4497;-68
2023/04/29 02:09:00;;;;;;;;;;;;;;;20.09;45.15;100416.53;5005927;28;4297;-69
2023/04/29 02:11:26;;;;;;;;;;;;;;;20.08;45.26;100421.53;5012712;28;4246;-68
2023/04/29 02:13:55;;;;;;;;;;;;;;;20.05;45.21;100405.59;5010155;28;4082;-68
2023/04/29 02:16:21;;;;;;;;;;;;;;;20.07;45.39;100413.56;5012137;28;4118;-69
2023/04/29 02:18:55;;;;;;;;;;;;;;;20.05;45.19;100405.59;5013406;28;4108;-68
2023/04/29 02:21:21;;;;;;;;;;;;;;;20.06;45.28;100414.97;5008480;28;5273;-68
2023/04/29 02:23:49;;;;;;;;;;;;;;;20.06;45.26;100407.06;5015316;28;4092;-68
2023/04/29 02:26:15;;;;;;;;;;;;;;;20.05;45.34;100405.59;5018392;28;4862;-68
2023/04/29 02:28:41;;;;;;;;;;;;;;;20.04;45.32;100404.13;5009673;28;4387;-68
2023/04/29 02:31:08;;;;;;;;;;;;;;;20.04;45.22;100403.38;5007428;28;4153;-67
2023/04/29 02:33:34;;;;;;;;;;;;;;;20.04;45.19;100409.88;5012263;28;4097;-68
2023/04/29 02:36:01;;;;;;;;;;;;;;;20.05;45.34;100416.38;5027260;28;4067;-68
2023/04/29 02:38:27;;;;;;;;;;;;;;;20.05;45.28;100414.22;5009590;28;4233;-68
2023/04/29 02:40:54;;;;;;;;;;;;;;;20.04;45.27;100409.88;5010290;28;4051;-68
2023/04/29 02:43:20;;;;;;;;;;;;;;;20.02;45.35;100406.94;5016537;28;4103;-68
2023/04/29 02:45:46;;;;;;;;;;;;;;;20.04;45.18;100409.13;5012077;28;4083;-69
2023/04/29 02:48:13;;;;;;;;;;;;;;;20.05;45.17;100414.22;5011927;28;4192;-68
2023/04/29 02:50:40;;;;;;;;;;;;;;;20.06;45.27;100412.81;5017237;28;4231;-68
2023/04/29 02:53:06;;;;;;;;;;;;;;;20.06;45.28;100401.31;5015039;28;4055;-68
2023/04/29 02:55:33;;;;;;;;;;;;;;;20.06;45.17;100407.06;5022962;28;4493;-68
2023/04/29 02:58:07;;;;;;;;;;;;;;;20.06;45.26;100407.06;5012753;28;4537;-68
2023/04/29 03:00:33;;;;;;;;;;;;;;;20.08;45.29;100409.28;5010067;28;4073;-68
2023/04/29 03:03:00;;;;;;;;;;;;;;;20.08;45.26;100404.28;5015527;28;4542;-68
2023/04/29 03:05:27;;;;;;;;;;;;;;;20.07;45.28;100402.81;5011008;28;4011;-68
2023/04/29 03:07:53;;;;;;;;;;;;;;;20.08;45.10;100409.28;5012621;28;4345;-68
2023/04/29 03:10:20;;;;;;;;;;;;;;;20.08;45.27;100415.03;5014170;28;4485;-68
2023/04/29 03:12:47;;;;;;;;;;;;;;;20.07;45.28;100402.09;5007847;28;4107;-68
2023/04/29 03:15:14;;;;;;;;;;;;;;;20.07;45.39;100402.09;5009374;28;4033;-68
2023/04/29 03:17:41;;;;;;;;;;;;;;;20.06;45.21;100404.19;5005530;28;4518;-68
2023/04/29 03:20:09;;;;;;;;;;;;;;;20.06;45.32;100403.47;5012528;28;4488;-68
2023/04/29 03:22:36;;;;;;;;;;;;;;;20.06;45.35;100395.56;5005433;28;4258;-68
2023/04/29 03:25:02;;;;;;;;;;;;;;;20.05;45.32;100396.25;5010326;28;3926;-68
2023/04/29 03:27:29;;;;;;;;;;;;;;;20.06;45.33;100398.44;5015057;28;4281;-69
2023/04/29 03:29:55;;;;;;;;;;;;;;;20.05;45.39;100393.38;5008679;28;4176;-69
2023/04/29 03:32:21;;;;;;;;;;;;;;;20.04;45.30;100392.63;5015201;28;4083;-69
2023/04/29 03:34:49;;;;;;;;;;;;;;;20.05;45.36;100396.25;5008891;28;4441;-69
2023/04/29 03:37:31;;;;;;;;;;;;;;;20.05;45.40;100390.50;5017935;28;4085;-69
2023/04/29 03:40:14;;;;;;;;;;;;;;;20.05;45.43;100393.38;4998453;28;4195;-69
2023/04/29 03:42:40;;;;;;;;;;;;;;;20.04;45.51;100392.63;5006668;28;4349;-69
2023/04/29 03:45:07;;;;;;;;;;;;;;;20.03;45.37;100384.66;5009768;28;4106;-69
2023/04/29 03:47:34;;;;;;;;;;;;;;;20.03;45.40;100393.28;5016535;28;6330;-69
2023/04/29 03:50:01;;;;;;;;;;;;;;;20.03;45.33;100396.16;5004351;28;4026;-69
2023/04/29 03:52:28;;;;;;;;;;;;;;;20.03;45.38;100384.66;5016679;28;4363;-69
2023/04/29 03:54:59;;;;;;;;;;;;;;;20.03;45.35;100391.16;5007092;28;4073;-69
2023/04/29 03:57:26;;;;;;;;;;;;;;;20.01;45.44;100393.94;5004881;28;4028;-69
2023/04/29 03:59:53;;;;;;;;;;;;;;;20.03;45.42;100390.41;5006635;28;3974;-69
2023/04/29 04:02:20;;;;;;;;;;;;;;;20.02;45.51;100389.69;5021418;28;4046;-69
2023/04/29 04:04:46;;;;;;;;;;;;;;;20.02;45.51;100398.31;5008352;28;4107;-65
2023/04/29 04:07:13;;;;;;;;;;;;;;;20.02;45.40;100394.66;5015175;28;4177;-64
2023/04/29 04:10:02;;;;;;;;;;;;;;;20.01;45.41;100399.69;5007370;28;3954;-68
2023/04/29 04:12:29;;;;;;;;;;;;;;;20.01;45.55;100393.94;5007492;28;4224;-68
2023/04/29 04:14:58;;;;;;;;;;;;;;;20.00;45.46;100406.84;5011392;28;4932;-68
2023/04/29 04:17:25;;;;;;;;;;;;;;;20.01;45.55;100405.44;5007809;28;4156;-68
2023/04/29 04:19:52;;;;;;;;;;;;;;;20.01;45.55;100405.44;5014575;28;4010;-68
2023/04/29 04:22:19;;;;;;;;;;;;;;;20.00;45.45;100400.34;5008192;28;3952;-68
2023/04/29 04:25:00;;;;;;;;;;;;;;;20.01;45.58;100404.69;5008048;28;4081;-69
2023/04/29 04:27:26;;;;;;;;;;;;;;;20.00;45.50;100406.09;5003954;28;4039;-68
2023/04/29 04:29:55;;;;;;;;;;;;;;;19.93;45.71;100415.84;5014657;28;4284;-68
2023/04/29 04:32:26;;;;;;;;;;;;;;;19.90;45.74;100412.16;5004728;28;5055;-68
2023/04/29 04:34:53;;;;;;;;;;;;;;;19.90;45.75;100417.91;5006353;28;6467;-69
2023/04/29 04:37:19;;;;;;;;;;;;;;;19.89;45.76;100410.69;5015175;28;3983;-69
2023/04/29 04:39:50;;;;;;;;;;;;;;;19.88;45.86;100409.97;5006876;28;4113;-68
2023/04/29 04:42:17;;;;;;;;;;;;;;;19.88;45.79;100404.22;5003509;28;4068;-68
2023/04/29 04:44:45;;;;;;;;;;;;;;;19.90;45.76;100412.16;5009860;28;3940;-68
2023/04/29 04:47:19;;;;;;;;;;;;;;;19.92;45.71;100409.38;5004831;28;4813;-68
2023/04/29 04:49:55;;;;;;;;;;;;;;;19.91;45.72;100410.78;5015476;28;4216;-68
2023/04/29 04:52:22;;;;;;;;;;;;;;;19.91;45.83;100413.66;5008874;28;4178;-68
2023/04/29 04:55:00;;;;;;;;;;;;;;;19.91;45.70;100419.41;5003342;28;3972;-68
2023/04/29 04:57:29;;;;;;;;;;;;;;;19.92;45.74;100415.13;5027092;28;4119;-68
2023/04/29 04:59:59;;;;;;;;;;;;;;;19.93;45.74;100419.47;5010303;28;4126;-68
2023/04/29 05:02:25;;;;;;;;;;;;;;;19.91;45.80;100419.41;5006373;28;4190;-68
2023/04/29 05:04:52;;;;;;;;;;;;;;;19.93;45.87;100422.34;5015097;28;4110;-68
2023/04/29 05:07:23;;;;;;;;;;;;;;;19.88;45.87;100432.19;4993690;28;4118;-68
2023/04/29 05:10:08;;;;;;;;;;;;;;;19.92;45.77;100425.88;5014537;28;4313;-68
2023/04/29 05:12:42;;;;;;;;;;;;;;;19.93;45.65;100424.47;5014591;28;4107;-68
2023/04/29 05:15:08;;;;;;;;;;;;;;;19.93;45.68;100421.59;5005357;28;4287;-68
2023/04/29 05:17:35;;;;;;;;;;;;;;;19.92;45.78;100423.00;5003726;28;4189;-68
2023/04/29 05:20:02;;;;;;;;;;;;;;;19.93;45.77;100421.59;5004756;28;4182;-68
2023/04/29 05:22:31;;;;;;;;;;;;;;;19.93;45.67;100439.59;5012262;28;4140;-68
2023/04/29 05:25:01;;;;;;;;;;;;;;;19.92;45.84;100431.63;5005947;28;4128;-68
2023/04/29 05:27:29;;;;;;;;;;;;;;;19.91;45.89;100436.66;5024319;28;4033;-68
2023/04/29 05:29:56;;;;;;;;;;;;;;;19.87;45.91;100424.97;5000524;28;4069;-68
2023/04/29 05:32:23;;;;;;;;;;;;;;;19.87;46.02;100431.44;5006938;28;4062;-68
2023/04/29 05:34:50;;;;;;;;;;;;;;;19.89;45.90;100439.44;5008335;28;4379;-68
2023/04/29 05:37:16;;;;;;;;;;;;;;;19.84;45.95;100438.53;5017688;28;4131;-68
2023/04/29 05:39:58;;;;;;;;;;;;;;;19.83;45.97;100442.78;5009370;28;4168;-68
2023/04/29 05:42:25;;;;;;;;;;;;;;;19.83;45.99;100436.28;5015932;28;4062;-68
2023/04/29 05:44:52;;;;;;;;;;;;;;;19.83;45.89;100442.03;5017899;28;4805;-68
2023/04/29 05:47:18;;;;;;;;;;;;;;;19.84;45.89;100450.00;5017542;28;4194;-68
2023/04/29 05:49:44;;;;;;;;;;;;;;;19.85;45.82;100450.75;5017349;28;4006;-68
2023/04/29 05:52:11;;;;;;;;;;;;;;;19.84;45.82;100446.41;5011930;28;4140;-68
2023/04/29 05:54:42;;;;;;;;;;;;;;;19.89;45.71;100450.91;5022744;28;4156;-68
2023/04/29 05:57:09;;;;;;;;;;;;;;;19.91;45.72;100453.88;4994877;28;4090;-67
2023/04/29 05:59:35;;;;;;;;;;;;;;;19.91;45.75;100462.50;5012019;28;4030;-68
2023/04/29 06:02:03;;;;;;;;;;;;;;;19.92;45.78;100455.34;5018520;28;3965;-68
2023/04/29 06:04:30;;;;;;;;;;;;;;;19.92;45.98;100460.38;5013893;28;4330;-68
2023/04/29 06:07:12;;;;;;;;;;;;;;;19.87;47.00;100460.19;5015494;28;4055;-68
2023/04/29 06:09:57;;;;;;;;;;;;;;;19.89;47.39;100465.28;5006586;28;4119;-69
2023/04/29 06:12:25;;;;;;;;;;;;;;;19.88;48.36;100472.41;5018446;28;4040;-69
2023/04/29 06:14:52;;;;;;;;;;;;;;;19.88;48.77;100472.41;4994231;28;4109;-68
2023/04/29 06:17:18;;;;;;;;;;;;;;;19.84;48.72;100467.25;5017093;28;4117;-68
2023/04/29 06:19:45;;;;;;;;;;;;;;;19.81;48.66;100467.81;5016171;28;4270;-68
2023/04/29 06:22:11;;;;;;;;;;;;;;;19.84;48.42;100478.00;5006150;28;4204;-70
2023/04/29 06:24:43;;;;;;;;;;;;;;;19.93;49.71;100481.94;4997969;28;3965;-68
2023/04/29 06:27:12;;;;;;;;;;;;;;;19.94;49.59;100487.03;5012238;28;4327;-68
2023/04/29 06:29:39;;;;;;;;;;;;;;;19.96;49.33;100490.00;5013604;28;4080;-68
2023/04/29 06:32:05;;;;;;;;;;;;;;;19.98;49.16;100492.97;5026107;28;4167;-68
2023/04/29 06:34:32;;;;;;;;;;;;;;;19.99;49.12;100494.44;5017176;28;4044;-68
2023/04/29 06:37:16;;;;;;;;;;;;;;;20.00;48.98;100507.44;5003283;28;4799;-68
2023/04/29 06:40:08;;;;;;;;;;;;;;;20.00;48.82;100506.69;5011647;28;4008;-68
2023/04/29 06:42:57;;;;;;;;;;;;;;;20.00;48.34;100513.19;5023802;28;4052;-68
2023/04/29 06:45:46;;;;;;;;;;;;;;;20.01;48.33;100508.91;5009845;28;4055;-68
2023/04/29 06:48:30;;;;;;;;;;;;;;;20.00;47.96;100513.19;5006513;28;4556;-68
2023/04/29 06:50:57;;;;;;;;;;;;;;;19.99;47.77;100523.19;5009386;28;4182;-68
2023/04/29 06:53:23;;;;;;;;;;;;;;;19.99;47.81;100523.19;5013683;28;3996;-68
2023/04/29 06:55:49;;;;;;;;;;;;;;;20.00;47.79;100533.28;5010655;28;4095;-68
2023/04/29 06:58:16;;;;;;;;;;;;;;;20.00;47.84;100539.03;4993396;28;4135;-67
2023/04/29 07:00:45;;;;;;;;;;;;;;;20.00;47.74;100536.16;5008807;28;4058;-68
2023/04/29 07:03:13;;;;;;;;;;;;;;;20.00;47.81;100541.91;5023297;28;4415;-68
2023/04/29 07:05:40;;;;;;;;;;;;;;;20.01;48.00;100536.91;5007891;28;4572;-67
2023/04/29 07:08:07;;;;;;;;;;;;;;;19.98;47.96;100538.94;5008416;28;4050;-68
2023/04/29 07:10:33;;;;;;;;;;;;;;;19.98;47.90;100544.69;5005468;28;4347;-68
2023/04/29 07:13:00;;;;;;;;;;;;;;;19.97;47.96;100551.81;5019970;28;3911;-68
2023/04/29 07:15:26;;;;;;;;;;;;;;;19.98;47.66;100556.19;5006915;28;5326;-68
2023/04/29 07:17:53;;;;;;;;;;;;;;;19.98;47.45;100556.19;5009040;28;4090;-67
2023/04/29 07:20:19;;;;;;;;;;;;;;;20.01;47.46;100560.63;5009084;28;4103;-68
2023/04/29 07:22:48;;;;;;;;;;;;;;;20.00;47.47;100564.91;5011120;28;3974;-68
2023/04/29 07:25:14;;;;;;;;;;;;;;;20.01;47.25;100569.25;5015510;28;4268;-67
2023/04/29 07:27:41;;;;;;;;;;;;;;;20.04;47.36;100570.84;5011538;28;3926;-68
2023/04/29 07:30:07;;;;;;;;;;;;;;;20.05;47.48;100575.19;5005629;28;4126;-68
2023/04/29 07:32:34;;;;;;;;;;;;;;;19.92;47.71;100581.06;5005382;28;4917;-69
2023/04/29 07:35:02;;;;;;;;;;;;;;;19.41;50.43;100583.09;5009294;28;4149;-69
2023/04/29 07:37:29;;;;;;;;;;;;;;;19.50;49.76;100584.22;5003300;28;5303;-67
2023/04/29 07:39:55;;;;;;;;;;;;;;;19.75;49.03;100591.84;5008725;28;4102;-68
2023/04/29 07:42:22;;;;;;;;;;;;;;;19.84;48.83;100590.06;5004809;28;4227;-69
2023/04/29 07:44:48;;;;;;;;;;;;;;;19.96;48.34;100593.47;5014248;28;4398;-67
2023/04/29 07:47:15;;;;;;;;;;;;;;;19.97;48.18;100612.19;5023853;28;4067;-68
2023/04/29 07:49:41;;;;;;;;;;;;;;;19.99;48.00;100611.53;5023009;28;5060;-68
2023/04/29 07:52:10;;;;;;;;;;;;;;;20.00;48.05;100616.66;5009661;28;4020;-68
2023/04/29 07:54:37;;;;;;;;;;;;;;;20.03;48.04;100621.06;5015184;28;5654;-69
2023/04/29 07:57:03;;;;;;;;;;;;;;;20.03;47.91;100621.06;5015261;28;3965;-67
2023/04/29 07:59:30;;;;;;;;;;;;;;;20.01;48.05;100618.13;5006847;28;4092;-68
2023/04/29 08:01:56;;;;;;;;;;;;;;;20.04;47.91;100628.31;5003425;28;4119;-68
2023/04/29 08:04:23;;;;;;;;;;;;;;;20.02;47.94;100641.84;5015690;28;4112;-67
2023/04/29 08:07:02;;;;;;;;;;;;;;;19.71;49.21;100642.63;4993206;28;3994;-71
2023/04/29 08:09:29;;;;;;;;;;;;;;;19.76;48.51;100647.88;5007618;28;4076;-68
2023/04/29 08:11:55;;;;;;;;;;;;;;;19.87;48.31;100652.72;5017475;28;4216;-68
2023/04/29 08:14:22;;;;;;;;;;;;;;;19.95;48.08;100651.59;5009897;28;4049;-68
2023/04/29 08:16:48;;;;;;;;;;;;;;;20.00;48.06;100650.41;4992008;28;4129;-68
2023/04/29 08:19:15;;;;;;;;;;;;;;;20.01;47.81;100651.88;5010027;28;5039;-68
2023/04/29 08:21:41;;;;;;;;;;;;;;;20.00;47.89;100667.66;5015287;28;3983;-68
2023/04/29 08:24:07;;;;;;;;;;;;;;;20.00;47.70;100662.63;5012152;28;4062;-68
2023/04/29 08:26:34;;;;;;;;;;;;;;;20.00;47.88;100674.13;5010349;28;5062;-68
2023/04/29 08:29:00;;;;;;;;;;;;;;;20.00;47.76;100677.00;5007548;28;4181;-68
2023/04/29 08:31:27;;;;;;;;;;;;;;;20.01;47.69;100687.09;5006471;28;4154;-68
2023/04/29 08:33:53;;;;;;;;;;;;;;;20.01;47.74;100689.22;5005497;28;4080;-68
2023/04/29 08:36:20;;;;;;;;;;;;;;;20.01;47.55;100692.84;5008783;28;4020;-67
2023/04/29 08:38:47;;;;;;;;;;;;;;;20.00;47.64;100691.38;5010606;28;4182;-68
2023/04/29 08:41:15;;;;;;;;;;;;;;;19.97;47.85;100701.28;5001372;28;3985;-67
2023/04/29 08:43:42;;;;;;;;;;;;;;;20.00;47.67;100700.00;5005417;28;4468;-68
2023/04/29 08:46:08;;;;;;;;;;;;;;;19.99;47.76;100704.25;5009527;28;4155;-68
2023/04/29 08:48:35;;;;;;;;;;;;;;;20.00;47.73;100705.00;5008912;28;4085;-67
2023/04/29 08:51:02;;;;;;;;;;;;;;;20.00;47.78;100711.50;5010194;28;4107;-68
2023/04/29 08:53:28;;;;;;;;;;;;;;;20.00;47.95;100717.25;5006950;28;4031;-67
2023/04/29 08:55:56;;;;;;;;;;;;;;;20.00;47.69;100725.88;5002503;28;4393;-68
2023/04/29 08:58:22;;;;;;;;;;;;;;;19.99;47.89;100735.84;5008596;28;4287;-68
2023/04/29 09:00:49;;;;;;;;;;;;;;;19.99;47.69;100740.88;5002832;28;4220;-68
2023/04/29 09:03:16;;;;;;;;;;;;;;;19.99;47.78;100735.84;5012366;28;4356;-68
2023/04/29 09:05:47;;;;;;;;;;;;;;;19.99;47.69;100740.88;5009083;28;4243;-68
2023/04/29 09:08:13;;;;;;;;;;;;;;;19.98;47.68;100740.13;5017681;28;3995;-67
2023/04/29 09:10:43;;;;;;;;;;;;;;;19.98;47.65;100745.88;5009168;28;4024;-67
2023/04/29 09:13:21;;;;;;;;;;;;;;;19.98;47.78;100745.88;5013660;28;4002;-67
2023/04/29 09:15:47;;;;;;;;;;;;;;;19.99;47.72;100750.22;5006679;28;3957;-68
2023/04/29 09:18:33;;;;;;;;;;;;;;;20.03;47.70;100746.81;5006732;28;4651;-68
2023/04/29 09:21:05;;;;;;;;;;;;;;;20.06;47.70;100763.50;5014395;28;4016;-68
2023/04/29 09:23:38;;;;;;;;;;;;;;;20.06;47.65;100763.50;5014317;28;4112;-67
2023/04/29 09:26:04;;;;;;;;;;;;;;;20.07;47.68;100776.47;5011823;28;4033;-68
2023/04/29 09:28:30;;;;;;;;;;;;;;;20.09;47.62;100781.59;5013593;28;4096;-67
2023/04/29 09:30:57;;;;;;;;;;;;;;;20.12;47.70;100788.19;5013494;28;4017;-68
2023/04/29 09:33:27;;;;;;;;;;;;;;;20.12;47.72;100776.69;5012046;28;5157;-68
2023/04/29 09:35:53;;;;;;;;;;;;;;;20.12;47.73;100788.19;5011127;28;4697;-68
2023/04/29 09:38:20;;;;;;;;;;;;;;;20.07;47.79;100787.25;5016662;28;4145;-68
2023/04/29 09:40:47;;;;;;;;;;;;;;;19.87;48.27;100799.25;5011313;28;4366;-67
2023/04/29 09:43:25;;;;;;;;;;;;;;;19.36;50.28;100798.91;5010796;28;4102;-70
2023/04/29 09:45:51;;;;;;;;;;;;;;;19.65;49.30;100810.41;5005729;28;4017;-69
2023/04/29 09:48:17;;;;;;;;;;;;;;;19.84;48.58;100805.56;5006306;28;4180;-70
2023/04/29 09:50:45;;;;;;;;;;;;;;;19.97;48.34;100807.63;5013766;28;4086;-69
2023/04/29 09:53:12;;;;;;;;;;;;;;;20.03;48.17;100816.53;4996640;28;4165;-68
2023/04/29 09:55:53;;;;;;;;;;;;;;;20.07;48.15;100821.75;5012781;28;4164;-69
2023/04/29 09:58:30;;;;;;;;;;;;;;;20.06;48.11;100820.25;5010249;28;4359;-68
2023/04/29 10:00:58;;;;;;;;;;;;;;;20.06;48.21;100826.72;5009672;28;4305;-69
2023/04/29 10:03:24;;;;;;;;;;;;;;;20.05;48.07;100831.00;5007653;28;4132;-68
2023/04/29 10:05:51;;;;;;;;;;;;;;;20.04;48.08;100835.28;5008912;28;4237;-68
2023/04/29 10:08:17;;;;;;;;;;;;;;;20.04;48.04;100838.16;5010020;28;4156;-78
2023/04/29 10:10:45;;;;;;;;;;;;;;;20.04;47.99;100841.03;5010921;28;4131;-71
2023/04/29 10:13:11;;;;;;;;;;;;;;;20.04;47.96;100846.78;5007002;28;3973;-70
2023/04/29 10:15:48;;;;;;;;;;;;;;;20.03;47.93;100839.53;5009035;28;4221;-71
2023/04/29 10:18:18;;;;;;;;;;;;;;;20.03;47.95;100844.53;5012151;28;4544;-70
2023/04/29 10:20:46;;;;;;;;;;;;;;;20.03;47.91;100851.03;5007934;28;4186;-71
2023/04/29 10:23:13;;;;;;;;;;;;;;;20.06;47.88;100854.72;5011524;28;3981;-71
2023/04/29 10:25:41;;;;;;;;;;;;;;;20.06;47.93;100855.47;5006658;28;4612;-70
2023/04/29 10:28:08;;;;;;;;;;;;;;;20.08;48.05;100864.19;5005603;28;4254;-70
2023/04/29 10:30:34;;;;;;;;;;;;;;;20.11;47.77;100862.16;5009698;28;4130;-70
2023/04/29 10:33:01;;;;;;;;;;;;;;;20.14;47.93;100866.63;5010221;28;4202;-70
2023/04/29 10:35:27;;;;;;;;;;;;;;;20.14;48.00;100872.38;5013125;28;4025;-70
2023/04/29 10:37:54;;;;;;;;;;;;;;;20.16;47.89;100874.59;5010715;28;3978;-70
2023/04/29 10:40:23;;;;;;;;;;;;;;;20.16;47.68;100883.22;5007651;28;4151;-70
2023/04/29 10:42:53;;;;;;;;;;;;;;;20.17;47.88;100876.09;5005343;28;4190;-70
2023/04/29 10:45:26;;;;;;;;;;;;;;;20.15;47.90;100878.88;5010707;28;4270;-71
2023/04/29 10:48:01;;;;;;;;;;;;;;;20.14;47.91;100878.13;5008653;28;4164;-70
2023/04/29 10:50:28;;;;;;;;;;;;;;;20.16;47.76;100886.09;5010462;28;4157;-71
2023/04/29 10:52:55;;;;;;;;;;;;;;;20.14;47.76;100883.88;5010567;28;4192;-71
2023/04/29 10:55:24;;;;;;;;;;;;;;;20.15;47.68;100878.88;5006073;28;4154;-71
2023/04/29 10:57:57;;;;;;;;;;;;;;;20.15;47.75;100891.09;5010719;28;4171;-70
2023/04/29 11:00:26;;;;;;;;;;;;;;;20.13;47.66;100882.38;5009613;28;4475;-70
2023/04/29 11:02:53;;;;;;;;;;;;;;;20.15;47.74;100896.13;5012736;28;3985;-71
2023/04/29 11:05:33;;;;;;;;;;;;;;;20.15;47.71;100896.84;5009556;28;3932;-70
2023/04/29 11:08:09;;;;;;;;;;;;;;;20.15;47.68;100901.88;5008180;28;4163;-71
2023/04/29 11:10:35;;;;;;;;;;;;;;;20.15;47.62;100904.75;5003253;28;3982;-70
2023/04/29 11:13:21;;;;;;;;;;;;;;;20.14;47.50;100904.00;5006543;28;4049;-71
2023/04/29 11:15:48;;;;;;;;;;;;;;;20.12;47.71;100903.16;5005628;28;3984;-70
2023/04/29 11:18:14;;;;;;;;;;;;;;;20.15;47.58;100907.63;5006286;28;3911;-71
2023/04/29 11:20:59;;;;;;;;;;;;;;;20.15;47.50;100911.22;5005468;28;4083;-71
2023/04/29 11:23:26;;;;;;;;;;;;;;;20.14;47.81;100914.75;5006381;28;4159;-67
2023/04/29 11:25:53;;;;;;;;;;;;;;;20.16;47.60;100914.84;5006156;28;4133;-68
2023/04/29 11:28:20;;;;;;;;;;;;;;;20.14;47.65;100918.38;5008849;28;4315;-68
2023/04/29 11:30:47;;;;;;;;;;;;;;;20.15;47.89;100919.13;5008531;28;4029;-68
2023/04/29 11:33:13;;;;;;;;;;;;;;;20.13;47.78;100922.63;5011907;28;4078;-68
2023/04/29 11:35:39;;;;;;;;;;;;;;;20.14;47.91;100923.41;5009144;28;3999;-68
2023/04/29 11:38:06;;;;;;;;;;;;;;;20.15;47.85;100922.00;5008054;28;4413;-68
2023/04/29 11:40:32;;;;;;;;;;;;;;;20.15;47.93;100922.00;5010760;28;4127;-68
2023/04/29 11:42:59;;;;;;;;;;;;;;;20.15;47.90;100927.75;5011353;28;4235;-68
2023/04/29 11:45:26;;;;;;;;;;;;;;;20.15;47.99;100924.88;5004788;28;4161;-68
2023/04/29 11:47:52;;;;;;;;;;;;;;;20.15;47.87;100934.22;5011427;28;4106;-68
2023/04/29 11:50:21;;;;;;;;;;;;;;;20.14;47.85;100934.88;5008760;28;4391;-67
2023/04/29 11:52:49;;;;;;;;;;;;;;;20.14;47.93;100940.63;5005799;28;4451;-68
2023/04/29 11:55:15;;;;;;;;;;;;;;;20.13;48.02;100936.25;5009419;28;4426;-67
2023/04/29 11:57:42;;;;;;;;;;;;;;;20.13;47.94;100939.13;5005963;28;4179;-67
2023/04/29 12:00:12;;;;;;;;;;;;;;;20.11;47.95;100947.66;5011280;28;4009;-66
2023/04/29 12:02:39;;;;;;;;;;;;;;;20.12;47.83;100952.03;5007808;28;4220;-68
2023/04/29 12:05:06;;;;;;;;;;;;;;;20.12;47.99;100960.66;5007437;28;4122;-68
2023/04/29 12:07:33;;;;;;;;;;;;;;;20.12;47.89;100966.41;5009351;28;4106;-68
2023/04/29 12:10:00;;;;;;;;;;;;;;;20.12;47.92;100966.41;5008201;28;4016;-68
2023/04/29 12:12:27;;;;;;;;;;;;;;;20.12;47.81;100960.66;5004918;28;4456;-68
2023/04/29 12:14:53;;;;;;;;;;;;;;;20.12;47.89;100969.28;5009471;28;4570;-68
2023/04/29 12:17:20;;;;;;;;;;;;;;;20.12;47.93;100972.16;5010202;28;4373;-68
2023/04/29 12:19:47;;;;;;;;;;;;;;;20.12;47.93;100969.28;5009880;28;4038;-68
2023/04/29 12:22:13;;;;;;;;;;;;;;;20.12;47.77;100972.16;5011901;28;4063;-68
2023/04/29 12:24:40;;;;;;;;;;;;;;;20.11;47.89;100979.28;5009311;28;4158;-68
2023/04/29 12:27:09;;;;;;;;;;;;;;;20.12;47.83;100975.03;5007769;28;3989;-68
2023/04/29 12:29:36;;;;;;;;;;;;;;;20.12;47.86;100970.03;5011363;28;4255;-68
2023/04/29 12:32:02;;;;;;;;;;;;;;;20.12;47.77;100972.91;5016784;28;3961;-68
2023/04/29 12:34:29;;;;;;;;;;;;;;;20.12;47.77;100972.16;5012238;28;4091;-68
2023/04/29 12:36:56;;;;;;;;;;;;;;;20.13;47.84;100982.25;5008769;28;4094;-68
2023/04/29 12:39:23;;;;;;;;;;;;;;;20.12;47.69;100983.66;5009095;28;4318;-68
2023/04/29 12:41:53;;;;;;;;;;;;;;;20.13;47.76;100983.00;5010544;28;4146;-68
2023/04/29 12:44:19;;;;;;;;;;;;;;;20.14;47.66;100980.88;5015022;28;4147;-68
2023/04/29 12:46:45;;;;;;;;;;;;;;;20.15;47.70;100991.00;5013349;28;4053;-68
2023/04/29 12:49:12;;;;;;;;;;;;;;;20.14;47.68;100975.88;5015494;28;3912;-68
2023/04/29 12:51:38;;;;;;;;;;;;;;;20.14;47.65;100986.66;5016563;28;4211;-68
2023/04/29 12:54:08;;;;;;;;;;;;;;;20.14;47.63;100986.66;5013505;28;4121;-68
2023/04/29 12:56:34;;;;;;;;;;;;;;;20.14;47.73;100998.13;5014311;28;4335;-68